sensor_id;sensor_type;location;lat;lon;timestamp;temperature;humidity
38568;DHT22;24338;48.280;10.970;2023-03-16T00:02:05;0.50;99.90
38568;DHT22;24338;48.280;10.970;2023-03-16T00:04:33;0.50;99.90
38568;DHT22;24338;48.280;10.970;2023-03-16T00:07:05;0.50;99.90
38568;DHT22;24338;48.280;10.970;2023-03-16T00:09:32;0.60;99.90
38568;DHT22;24338;48.280;10.970;2023-03-16T00:12:00;0.60;99.90
38568;DHT22;24338;48.280;10.970;2023-03-16T00:14:31;0.70;99.90
38568;DHT22;24338;48.280;10.970;2023-03-16T00:17:01;0.70;99.90
38568;DHT22;24338;48.280;10.970;2023-03-16T00:19:27;0.70;99.90
38568;DHT22;24338;48.280;10.970;2023-03-16T00:21:54;0.80;99.90
38568;DHT22;24338;48.280;10.970;2023-03-16T00:24:21;0.80;99.90
38568;DHT22;24338;48.280;10.970;2023-03-16T00:26:50;0.80;99.90
38568;DHT22;24338;48.280;10.970;2023-03-16T00:29:20;0.80;99.90
38568;DHT22;24338;48.280;10.970;2023-03-16T00:31:48;0.80;99.90
38568;DHT22;24338;48.280;10.970;2023-03-16T00:34:15;0.80;99.90
38568;DHT22;24338;48.280;10.970;2023-03-16T00:36:42;0.80;99.90
38568;DHT22;24338;48.280;10.970;2023-03-16T00:39:08;0.80;99.90
38568;DHT22;24338;48.280;10.970;2023-03-16T00:41:37;0.70;99.90
38568;DHT22;24338;48.280;10.970;2023-03-16T00:44:05;0.70;99.90
38568;DHT22;24338;48.280;10.970;2023-03-16T00:46:32;0.60;99.90
38568;DHT22;24338;48.280;10.970;2023-03-16T00:48:59;0.60;99.90
38568;DHT22;24338;48.280;10.970;2023-03-16T00:51:25;0.60;99.90
38568;DHT22;24338;48.280;10.970;2023-03-16T00:53:52;0.50;99.90
38568;DHT22;24338;48.280;10.970;2023-03-16T00:56:19;0.50;99.90
38568;DHT22;24338;48.280;10.970;2023-03-16T00:58:46;0.50;99.90
38568;DHT22;24338;48.280;10.970;2023-03-16T01:01:18;0.50;99.90
38568;DHT22;24338;48.280;10.970;2023-03-16T01:03:45;0.50;99.90
38568;DHT22;24338;48.280;10.970;2023-03-16T01:06:15;0.40;99.90
38568;DHT22;24338;48.280;10.970;2023-03-16T01:08:43;0.40;99.90
38568;DHT22;24338;48.280;10.970;2023-03-16T01:11:15;0.40;99.90
38568;DHT22;24338;48.280;10.970;2023-03-16T01:13:43;0.30;99.90
38568;DHT22;24338;48.280;10.970;2023-03-16T01:16:10;0.30;99.90
38568;DHT22;24338;48.280;10.970;2023-03-16T01:18:37;0.20;99.90
38568;DHT22;24338;48.280;10.970;2023-03-16T01:21:06;0.20;99.90
38568;DHT22;24338;48.280;10.970;2023-03-16T01:23:35;0.20;99.90
38568;DHT22;24338;48.280;10.970;2023-03-16T01:26:02;0.10;99.90
38568;DHT22;24338;48.280;10.970;2023-03-16T01:28:31;0.10;99.90
38568;DHT22;24338;48.280;10.970;2023-03-16T01:31:03;0.10;99.90
38568;DHT22;24338;48.280;10.970;2023-03-16T01:33:30;0.00;99.90
38568;DHT22;24338;48.280;10.970;2023-03-16T01:36:00;0.00;99.90
38568;DHT22;24338;48.280;10.970;2023-03-16T01:38:27;0.00;99.90
38568;DHT22;24338;48.280;10.970;2023-03-16T01:40:54;-0.10;99.90
38568;DHT22;24338;48.280;10.970;2023-03-16T01:43:24;0.00;99.90
38568;DHT22;24338;48.280;10.970;2023-03-16T01:48:32;-0.20;99.90
38568;DHT22;24338;48.280;10.970;2023-03-16T01:51:09;-0.20;99.90
38568;DHT22;24338;48.280;10.970;2023-03-16T01:53:38;-0.20;99.90
38568;DHT22;24338;48.280;10.970;2023-03-16T01:56:09;-0.20;99.90
38568;DHT22;24338;48.280;10.970;2023-03-16T01:58:37;-0.20;99.90
38568;DHT22;24338;48.280;10.970;2023-03-16T02:01:05;-0.30;99.90
38568;DHT22;24338;48.280;10.970;2023-03-16T02:03:32;-0.30;99.90
38568;DHT22;24338;48.280;10.970;2023-03-16T02:06:10;-0.30;99.90
38568;DHT22;24338;48.280;10.970;2023-03-16T02:08:39;-0.30;99.90
38568;DHT22;24338;48.280;10.970;2023-03-16T02:11:08;-0.30;99.90
38568;DHT22;24338;48.280;10.970;2023-03-16T02:13:35;-0.30;99.90
38568;DHT22;24338;48.280;10.970;2023-03-16T02:16:05;-0.40;99.90
38568;DHT22;24338;48.280;10.970;2023-03-16T02:18:33;-0.40;99.90
38568;DHT22;24338;48.280;10.970;2023-03-16T02:23:42;-0.50;99.90
38568;DHT22;24338;48.280;10.970;2023-03-16T02:26:29;-0.50;99.90
38568;DHT22;24338;48.280;10.970;2023-03-16T02:29:19;-0.50;99.90
38568;DHT22;24338;48.280;10.970;2023-03-16T02:31:48;-0.50;99.90
38568;DHT22;24338;48.280;10.970;2023-03-16T02:34:16;-0.60;99.90
38568;DHT22;24338;48.280;10.970;2023-03-16T02:36:44;-0.60;99.90
38568;DHT22;24338;48.280;10.970;2023-03-16T02:39:13;-0.60;99.90
38568;DHT22;24338;48.280;10.970;2023-03-16T02:41:40;-0.60;99.90
38568;DHT22;24338;48.280;10.970;2023-03-16T02:44:12;-0.60;99.90
38568;DHT22;24338;48.280;10.970;2023-03-16T02:46:42;-0.60;99.90
38568;DHT22;24338;48.280;10.970;2023-03-16T02:49:31;-0.70;99.90
38568;DHT22;24338;48.280;10.970;2023-03-16T02:51:59;-0.70;99.90
38568;DHT22;24338;48.280;10.970;2023-03-16T02:54:26;-0.70;99.90
38568;DHT22;24338;48.280;10.970;2023-03-16T02:56:53;-0.70;99.90
38568;DHT22;24338;48.280;10.970;2023-03-16T02:59:19;-0.80;99.90
38568;DHT22;24338;48.280;10.970;2023-03-16T03:01:47;-0.80;99.90
38568;DHT22;24338;48.280;10.970;2023-03-16T03:04:13;-0.80;99.90
38568;DHT22;24338;48.280;10.970;2023-03-16T03:06:40;-0.80;99.90
38568;DHT22;24338;48.280;10.970;2023-03-16T03:09:07;-0.80;99.90
38568;DHT22;24338;48.280;10.970;2023-03-16T03:11:35;-0.80;99.90
38568;DHT22;24338;48.280;10.970;2023-03-16T03:14:02;-0.90;99.90
38568;DHT22;24338;48.280;10.970;2023-03-16T03:16:30;-0.90;99.90
38568;DHT22;24338;48.280;10.970;2023-03-16T03:18:57;-0.90;99.90
38568;DHT22;24338;48.280;10.970;2023-03-16T03:21:24;-0.90;99.90
38568;DHT22;24338;48.280;10.970;2023-03-16T03:23:51;-0.90;99.90
38568;DHT22;24338;48.280;10.970;2023-03-16T03:26:19;-0.90;99.90
38568;DHT22;24338;48.280;10.970;2023-03-16T03:28:46;-1.00;99.90
38568;DHT22;24338;48.280;10.970;2023-03-16T03:31:19;-1.00;99.90
38568;DHT22;24338;48.280;10.970;2023-03-16T03:33:46;-1.00;99.90
38568;DHT22;24338;48.280;10.970;2023-03-16T03:36:13;-0.90;99.90
38568;DHT22;24338;48.280;10.970;2023-03-16T03:38:40;-0.90;99.90
38568;DHT22;24338;48.280;10.970;2023-03-16T03:41:07;-1.00;99.90
38568;DHT22;24338;48.280;10.970;2023-03-16T03:43:34;-1.00;99.90
38568;DHT22;24338;48.280;10.970;2023-03-16T03:46:02;-1.00;99.90
38568;DHT22;24338;48.280;10.970;2023-03-16T03:48:29;-1.00;99.90
38568;DHT22;24338;48.280;10.970;2023-03-16T03:50:56;-1.00;99.90
38568;DHT22;24338;48.280;10.970;2023-03-16T03:53:23;-1.00;99.90
38568;DHT22;24338;48.280;10.970;2023-03-16T03:55:50;-0.90;99.90
38568;DHT22;24338;48.280;10.970;2023-03-16T03:58:17;-0.90;99.90
38568;DHT22;24338;48.280;10.970;2023-03-16T04:00:44;-0.90;99.90
38568;DHT22;24338;48.280;10.970;2023-03-16T04:03:12;-0.90;99.90
38568;DHT22;24338;48.280;10.970;2023-03-16T04:05:39;-0.90;99.90
38568;DHT22;24338;48.280;10.970;2023-03-16T04:08:06;-1.00;99.90
38568;DHT22;24338;48.280;10.970;2023-03-16T04:10:33;-1.00;99.90
38568;DHT22;24338;48.280;10.970;2023-03-16T04:12:59;-1.00;99.90
38568;DHT22;24338;48.280;10.970;2023-03-16T04:15:26;-1.00;99.90
38568;DHT22;24338;48.280;10.970;2023-03-16T04:17:53;-1.10;99.90
38568;DHT22;24338;48.280;10.970;2023-03-16T04:20:20;-1.10;99.90
38568;DHT22;24338;48.280;10.970;2023-03-16T04:22:48;-1.10;99.90
38568;DHT22;24338;48.280;10.970;2023-03-16T04:25:16;-1.10;99.90
38568;DHT22;24338;48.280;10.970;2023-03-16T04:27:43;-1.20;99.90
38568;DHT22;24338;48.280;10.970;2023-03-16T04:30:13;-1.20;99.90
38568;DHT22;24338;48.280;10.970;2023-03-16T04:32:40;-1.20;99.90
38568;DHT22;24338;48.280;10.970;2023-03-16T04:35:08;-1.20;99.90
38568;DHT22;24338;48.280;10.970;2023-03-16T04:37:35;-1.20;99.90
38568;DHT22;24338;48.280;10.970;2023-03-16T04:40:02;-1.30;99.90
38568;DHT22;24338;48.280;10.970;2023-03-16T04:42:42;-1.20;99.90
38568;DHT22;24338;48.280;10.970;2023-03-16T04:45:10;-1.20;99.90
38568;DHT22;24338;48.280;10.970;2023-03-16T04:47:38;-1.20;99.90
38568;DHT22;24338;48.280;10.970;2023-03-16T04:50:06;-1.10;99.90
38568;DHT22;24338;48.280;10.970;2023-03-16T04:52:33;-1.10;99.90
38568;DHT22;24338;48.280;10.970;2023-03-16T04:55:00;-1.10;99.90
38568;DHT22;24338;48.280;10.970;2023-03-16T04:57:27;-1.20;99.90
38568;DHT22;24338;48.280;10.970;2023-03-16T04:59:53;-1.10;99.90
38568;DHT22;24338;48.280;10.970;2023-03-16T05:02:20;-1.10;99.90
38568;DHT22;24338;48.280;10.970;2023-03-16T05:04:47;-1.10;99.90
38568;DHT22;24338;48.280;10.970;2023-03-16T05:07:14;-1.10;99.90
38568;DHT22;24338;48.280;10.970;2023-03-16T05:09:41;-1.10;99.90
38568;DHT22;24338;48.280;10.970;2023-03-16T05:12:08;-1.10;99.90
38568;DHT22;24338;48.280;10.970;2023-03-16T05:14:35;-1.10;99.90
38568;DHT22;24338;48.280;10.970;2023-03-16T05:17:03;-1.20;99.90
38568;DHT22;24338;48.280;10.970;2023-03-16T05:19:29;-1.20;99.90
38568;DHT22;24338;48.280;10.970;2023-03-16T05:21:56;-1.10;99.90
38568;DHT22;24338;48.280;10.970;2023-03-16T05:24:24;-1.20;99.90
38568;DHT22;24338;48.280;10.970;2023-03-16T05:26:50;-1.20;99.90
38568;DHT22;24338;48.280;10.970;2023-03-16T05:29:17;-1.20;99.90
38568;DHT22;24338;48.280;10.970;2023-03-16T05:31:44;-1.20;99.90
38568;DHT22;24338;48.280;10.970;2023-03-16T05:34:13;-1.30;99.90
38568;DHT22;24338;48.280;10.970;2023-03-16T05:36:40;-1.30;99.90
38568;DHT22;24338;48.280;10.970;2023-03-16T05:39:07;-1.20;99.90
38568;DHT22;24338;48.280;10.970;2023-03-16T05:41:34;-1.10;99.90
38568;DHT22;24338;48.280;10.970;2023-03-16T05:44:01;-1.10;99.90
38568;DHT22;24338;48.280;10.970;2023-03-16T05:46:30;-1.10;99.90
38568;DHT22;24338;48.280;10.970;2023-03-16T05:48:57;-1.10;99.90
38568;DHT22;24338;48.280;10.970;2023-03-16T05:51:24;-1.10;99.90
38568;DHT22;24338;48.280;10.970;2023-03-16T05:53:54;-1.10;99.90
38568;DHT22;24338;48.280;10.970;2023-03-16T05:56:25;-1.00;99.90
38568;DHT22;24338;48.280;10.970;2023-03-16T05:58:54;-1.00;99.90
38568;DHT22;24338;48.280;10.970;2023-03-16T06:01:22;-1.00;99.90
38568;DHT22;24338;48.280;10.970;2023-03-16T06:03:49;-1.00;99.90
38568;DHT22;24338;48.280;10.970;2023-03-16T06:06:18;-1.00;99.90
38568;DHT22;24338;48.280;10.970;2023-03-16T06:08:46;-1.00;99.90
38568;DHT22;24338;48.280;10.970;2023-03-16T06:11:13;-0.90;99.90
38568;DHT22;24338;48.280;10.970;2023-03-16T06:13:40;-0.90;99.90
38568;DHT22;24338;48.280;10.970;2023-03-16T06:16:07;-0.90;99.90
38568;DHT22;24338;48.280;10.970;2023-03-16T06:18:37;-0.80;99.90
38568;DHT22;24338;48.280;10.970;2023-03-16T06:21:05;-0.80;99.90
38568;DHT22;24338;48.280;10.970;2023-03-16T06:23:33;-0.70;99.90
38568;DHT22;24338;48.280;10.970;2023-03-16T06:26:00;-0.70;99.90
38568;DHT22;24338;48.280;10.970;2023-03-16T06:28:27;-0.60;99.90
38568;DHT22;24338;48.280;10.970;2023-03-16T06:30:55;-0.60;99.90
38568;DHT22;24338;48.280;10.970;2023-03-16T06:33:22;-0.60;99.90
38568;DHT22;24338;48.280;10.970;2023-03-16T06:35:50;-0.50;99.90
38568;DHT22;24338;48.280;10.970;2023-03-16T06:38:18;-0.50;99.90
38568;DHT22;24338;48.280;10.970;2023-03-16T06:40:49;-0.50;99.90
38568;DHT22;24338;48.280;10.970;2023-03-16T06:43:16;-0.40;99.90
38568;DHT22;24338;48.280;10.970;2023-03-16T06:45:43;-0.40;99.90
38568;DHT22;24338;48.280;10.970;2023-03-16T06:48:11;-0.40;99.90
38568;DHT22;24338;48.280;10.970;2023-03-16T06:50:38;-0.30;99.90
38568;DHT22;24338;48.280;10.970;2023-03-16T06:53:05;-0.30;99.90
38568;DHT22;24338;48.280;10.970;2023-03-16T06:55:32;-0.30;99.90
38568;DHT22;24338;48.280;10.970;2023-03-16T06:57:59;-0.20;99.90
38568;DHT22;24338;48.280;10.970;2023-03-16T07:00:25;-0.10;99.90
38568;DHT22;24338;48.280;10.970;2023-03-16T07:02:53;-0.10;99.90
38568;DHT22;24338;48.280;10.970;2023-03-16T07:05:20;0.00;99.90
38568;DHT22;24338;48.280;10.970;2023-03-16T07:07:47;0.10;99.90
38568;DHT22;24338;48.280;10.970;2023-03-16T07:10:15;0.10;99.90
38568;DHT22;24338;48.280;10.970;2023-03-16T07:12:43;0.20;99.90
38568;DHT22;24338;48.280;10.970;2023-03-16T07:15:11;0.20;99.90
38568;DHT22;24338;48.280;10.970;2023-03-16T07:17:38;0.30;99.90
38568;DHT22;24338;48.280;10.970;2023-03-16T07:20:05;0.40;99.90
38568;DHT22;24338;48.280;10.970;2023-03-16T07:22:36;0.50;99.90
38568;DHT22;24338;48.280;10.970;2023-03-16T07:25:04;0.50;99.90
38568;DHT22;24338;48.280;10.970;2023-03-16T07:27:31;0.60;99.90
38568;DHT22;24338;48.280;10.970;2023-03-16T07:29:58;0.70;99.90
38568;DHT22;24338;48.280;10.970;2023-03-16T07:32:26;0.70;99.90
38568;DHT22;24338;48.280;10.970;2023-03-16T07:34:52;0.80;99.90
38568;DHT22;24338;48.280;10.970;2023-03-16T07:37:20;0.90;99.90
38568;DHT22;24338;48.280;10.970;2023-03-16T07:39:51;0.90;99.90
38568;DHT22;24338;48.280;10.970;2023-03-16T07:42:18;1.00;99.90
38568;DHT22;24338;48.280;10.970;2023-03-16T07:44:45;1.00;99.90
38568;DHT22;24338;48.280;10.970;2023-03-16T07:47:12;1.10;99.90
38568;DHT22;24338;48.280;10.970;2023-03-16T07:49:39;1.20;99.90
38568;DHT22;24338;48.280;10.970;2023-03-16T07:52:07;1.20;99.90
38568;DHT22;24338;48.280;10.970;2023-03-16T07:54:34;1.30;99.90
38568;DHT22;24338;48.280;10.970;2023-03-16T07:57:01;1.40;99.90
38568;DHT22;24338;48.280;10.970;2023-03-16T07:59:28;1.40;99.90
38568;DHT22;24338;48.280;10.970;2023-03-16T08:01:55;1.50;99.90
38568;DHT22;24338;48.280;10.970;2023-03-16T08:04:22;1.60;99.90
38568;DHT22;24338;48.280;10.970;2023-03-16T08:06:49;1.60;99.90
38568;DHT22;24338;48.280;10.970;2023-03-16T08:09:18;1.70;99.90
38568;DHT22;24338;48.280;10.970;2023-03-16T08:11:48;1.80;99.90
38568;DHT22;24338;48.280;10.970;2023-03-16T08:14:14;1.80;99.90
38568;DHT22;24338;48.280;10.970;2023-03-16T08:16:41;1.90;99.90
38568;DHT22;24338;48.280;10.970;2023-03-16T08:19:08;2.00;99.90
38568;DHT22;24338;48.280;10.970;2023-03-16T08:21:35;2.00;99.90
38568;DHT22;24338;48.280;10.970;2023-03-16T08:24:21;2.20;99.90
38568;DHT22;24338;48.280;10.970;2023-03-16T08:26:48;2.20;99.90
38568;DHT22;24338;48.280;10.970;2023-03-16T08:29:15;2.20;99.90
38568;DHT22;24338;48.280;10.970;2023-03-16T08:31:42;2.40;99.90
38568;DHT22;24338;48.280;10.970;2023-03-16T08:34:09;2.50;99.90
38568;DHT22;24338;48.280;10.970;2023-03-16T08:36:37;2.60;99.90
38568;DHT22;24338;48.280;10.970;2023-03-16T08:39:04;2.70;99.90
38568;DHT22;24338;48.280;10.970;2023-03-16T08:41:35;2.70;99.90
38568;DHT22;24338;48.280;10.970;2023-03-16T08:44:02;2.80;99.90
38568;DHT22;24338;48.280;10.970;2023-03-16T08:46:29;2.80;99.90
38568;DHT22;24338;48.280;10.970;2023-03-16T08:48:56;2.90;99.90
38568;DHT22;24338;48.280;10.970;2023-03-16T08:51:23;3.10;99.90
38568;DHT22;24338;48.280;10.970;2023-03-16T08:53:50;3.20;99.90
38568;DHT22;24338;48.280;10.970;2023-03-16T08:56:17;3.20;99.90
38568;DHT22;24338;48.280;10.970;2023-03-16T08:58:44;3.30;99.90
38568;DHT22;24338;48.280;10.970;2023-03-16T09:01:13;3.40;99.90
38568;DHT22;24338;48.280;10.970;2023-03-16T09:03:40;3.40;99.90
38568;DHT22;24338;48.280;10.970;2023-03-16T09:06:10;3.50;99.90
38568;DHT22;24338;48.280;10.970;2023-03-16T09:08:38;3.60;99.90
38568;DHT22;24338;48.280;10.970;2023-03-16T09:11:12;3.70;99.90
38568;DHT22;24338;48.280;10.970;2023-03-16T09:13:40;3.70;99.90
38568;DHT22;24338;48.280;10.970;2023-03-16T09:16:08;3.90;99.90
38568;DHT22;24338;48.280;10.970;2023-03-16T09:18:35;3.90;99.90
38568;DHT22;24338;48.280;10.970;2023-03-16T09:21:04;4.00;99.90
38568;DHT22;24338;48.280;10.970;2023-03-16T09:23:32;4.10;99.90
38568;DHT22;24338;48.280;10.970;2023-03-16T09:26:01;4.30;99.90
38568;DHT22;24338;48.280;10.970;2023-03-16T09:28:29;4.40;99.90
38568;DHT22;24338;48.280;10.970;2023-03-16T09:30:59;4.50;99.90
38568;DHT22;24338;48.280;10.970;2023-03-16T09:33:27;4.60;99.90
38568;DHT22;24338;48.280;10.970;2023-03-16T09:35:55;4.70;99.90
38568;DHT22;24338;48.280;10.970;2023-03-16T09:38:24;4.80;99.90
38568;DHT22;24338;48.280;10.970;2023-03-16T09:41:05;4.90;99.90
38568;DHT22;24338;48.280;10.970;2023-03-16T09:43:50;5.00;99.90
38568;DHT22;24338;48.280;10.970;2023-03-16T09:46:29;5.10;99.90
38568;DHT22;24338;48.280;10.970;2023-03-16T09:49:00;5.20;99.90
38568;DHT22;24338;48.280;10.970;2023-03-16T09:57:31;5.40;99.90
38568;DHT22;24338;48.280;10.970;2023-03-16T10:00:14;5.50;99.90
38568;DHT22;24338;48.280;10.970;2023-03-16T10:05:21;5.90;99.90
38568;DHT22;24338;48.280;10.970;2023-03-16T10:14:02;6.50;99.90
38568;DHT22;24338;48.280;10.970;2023-03-16T10:17:13;6.50;99.90
38568;DHT22;24338;48.280;10.970;2023-03-16T10:19:58;6.60;99.90
38568;DHT22;24338;48.280;10.970;2023-03-16T10:22:31;6.60;99.90
38568;DHT22;24338;48.280;10.970;2023-03-16T10:27:34;6.80;99.90
38568;DHT22;24338;48.280;10.970;2023-03-16T10:30:06;7.10;99.90
38568;DHT22;24338;48.280;10.970;2023-03-16T10:32:40;7.30;99.90
38568;DHT22;24338;48.280;10.970;2023-03-16T10:35:33;7.30;99.90
38568;DHT22;24338;48.280;10.970;2023-03-16T10:38:05;7.40;99.90
38568;DHT22;24338;48.280;10.970;2023-03-16T10:40:36;7.50;99.90
38568;DHT22;24338;48.280;10.970;2023-03-16T10:43:12;7.70;99.90
38568;DHT22;24338;48.280;10.970;2023-03-16T10:45:41;7.70;99.90
38568;DHT22;24338;48.280;10.970;2023-03-16T10:48:14;7.70;99.90
38568;DHT22;24338;48.280;10.970;2023-03-16T10:50:42;7.80;99.90
38568;DHT22;24338;48.280;10.970;2023-03-16T10:53:30;7.90;99.90
38568;DHT22;24338;48.280;10.970;2023-03-16T10:56:07;8.00;99.90
38568;DHT22;24338;48.280;10.970;2023-03-16T10:58:40;7.90;99.90
38568;DHT22;24338;48.280;10.970;2023-03-16T11:01:25;7.90;99.90
38568;DHT22;24338;48.280;10.970;2023-03-16T11:03:54;8.00;99.90
38568;DHT22;24338;48.280;10.970;2023-03-16T11:08:52;8.20;99.90
38568;DHT22;24338;48.280;10.970;2023-03-16T11:11:30;8.20;99.90
38568;DHT22;24338;48.280;10.970;2023-03-16T11:14:02;8.40;99.90
38568;DHT22;24338;48.280;10.970;2023-03-16T11:16:37;8.40;99.90
38568;DHT22;24338;48.280;10.970;2023-03-16T11:19:16;8.50;99.90
38568;DHT22;24338;48.280;10.970;2023-03-16T11:22:00;8.60;99.90
38568;DHT22;24338;48.280;10.970;2023-03-16T11:32:29;8.60;99.90
38568;DHT22;24338;48.280;10.970;2023-03-16T11:34:59;8.80;99.90
38568;DHT22;24338;48.280;10.970;2023-03-16T11:37:55;9.00;99.90
38568;DHT22;24338;48.280;10.970;2023-03-16T11:43:47;9.50;99.90
38568;DHT22;24338;48.280;10.970;2023-03-16T11:46:25;9.60;99.90
38568;DHT22;24338;48.280;10.970;2023-03-16T11:51:58;9.50;99.90
38568;DHT22;24338;48.280;10.970;2023-03-16T11:54:45;9.40;99.90
38568;DHT22;24338;48.280;10.970;2023-03-16T12:02:49;9.20;99.90
38568;DHT22;24338;48.280;10.970;2023-03-16T12:10:51;9.70;99.90
38568;DHT22;24338;48.280;10.970;2023-03-16T12:16:47;9.60;99.90
38568;DHT22;24338;48.280;10.970;2023-03-16T12:19:21;9.80;99.90
38568;DHT22;24338;48.280;10.970;2023-03-16T12:22:20;9.80;99.90
38568;DHT22;24338;48.280;10.970;2023-03-16T12:24:49;10.00;99.90
38568;DHT22;24338;48.280;10.970;2023-03-16T12:27:30;9.80;99.90
38568;DHT22;24338;48.280;10.970;2023-03-16T12:35:51;9.50;99.90
38568;DHT22;24338;48.280;10.970;2023-03-16T12:38:24;9.60;99.90
38568;DHT22;24338;48.280;10.970;2023-03-16T12:48:59;9.60;99.90
38568;DHT22;24338;48.280;10.970;2023-03-16T12:51:38;9.80;99.90
38568;DHT22;24338;48.280;10.970;2023-03-16T12:56:47;10.00;99.90
38568;DHT22;24338;48.280;10.970;2023-03-16T12:59:18;9.90;98.60
38568;DHT22;24338;48.280;10.970;2023-03-16T13:01:49;9.80;98.80
38568;DHT22;24338;48.280;10.970;2023-03-16T13:04:19;9.80;99.00
38568;DHT22;24338;48.280;10.970;2023-03-16T13:06:49;10.10;99.90
38568;DHT22;24338;48.280;10.970;2023-03-16T13:09:21;10.00;98.70
38568;DHT22;24338;48.280;10.970;2023-03-16T13:11:50;9.70;97.90
38568;DHT22;24338;48.280;10.970;2023-03-16T13:14:37;9.80;99.20
38568;DHT22;24338;48.280;10.970;2023-03-16T13:17:20;9.70;98.90
38568;DHT22;24338;48.280;10.970;2023-03-16T13:20:20;9.80;97.30
38568;DHT22;24338;48.280;10.970;2023-03-16T13:25:56;10.30;97.10
38568;DHT22;24338;48.280;10.970;2023-03-16T13:28:29;10.40;96.90
38568;DHT22;24338;48.280;10.970;2023-03-16T13:30:57;10.50;95.20
38568;DHT22;24338;48.280;10.970;2023-03-16T13:33:26;10.80;96.10
38568;DHT22;24338;48.280;10.970;2023-03-16T13:35:55;10.70;94.70
38568;DHT22;24338;48.280;10.970;2023-03-16T13:38:24;10.40;92.20
38568;DHT22;24338;48.280;10.970;2023-03-16T13:41:08;10.10;92.90
38568;DHT22;24338;48.280;10.970;2023-03-16T13:43:37;10.00;94.70
38568;DHT22;24338;48.280;10.970;2023-03-16T13:46:16;10.30;93.30
38568;DHT22;24338;48.280;10.970;2023-03-16T13:48:45;10.30;93.50
38568;DHT22;24338;48.280;10.970;2023-03-16T13:51:16;10.30;93.40
38568;DHT22;24338;48.280;10.970;2023-03-16T13:53:44;10.30;92.70
38568;DHT22;24338;48.280;10.970;2023-03-16T13:56:25;10.20;92.80
38568;DHT22;24338;48.280;10.970;2023-03-16T13:58:56;10.40;91.20
38568;DHT22;24338;48.280;10.970;2023-03-16T14:01:30;10.70;91.20
38568;DHT22;24338;48.280;10.970;2023-03-16T14:04:00;10.80;91.00
38568;DHT22;24338;48.280;10.970;2023-03-16T14:06:34;10.80;91.30
38568;DHT22;24338;48.280;10.970;2023-03-16T14:09:05;10.60;90.10
38568;DHT22;24338;48.280;10.970;2023-03-16T14:11:33;10.70;90.60
38568;DHT22;24338;48.280;10.970;2023-03-16T14:14:16;10.70;88.10
38568;DHT22;24338;48.280;10.970;2023-03-16T14:16:44;10.40;90.10
38568;DHT22;24338;48.280;10.970;2023-03-16T14:19:21;10.30;90.60
38568;DHT22;24338;48.280;10.970;2023-03-16T14:21:50;10.40;92.30
38568;DHT22;24338;48.280;10.970;2023-03-16T14:24:30;10.50;88.00
38568;DHT22;24338;48.280;10.970;2023-03-16T14:27:24;10.40;90.20
38568;DHT22;24338;48.280;10.970;2023-03-16T14:30:13;10.50;90.40
38568;DHT22;24338;48.280;10.970;2023-03-16T14:32:41;10.60;90.10
38568;DHT22;24338;48.280;10.970;2023-03-16T14:35:14;10.60;89.10
38568;DHT22;24338;48.280;10.970;2023-03-16T14:37:41;10.70;88.80
38568;DHT22;24338;48.280;10.970;2023-03-16T14:42:51;10.60;89.30
38568;DHT22;24338;48.280;10.970;2023-03-16T14:45:19;10.50;85.20
38568;DHT22;24338;48.280;10.970;2023-03-16T14:47:48;10.50;87.80
38568;DHT22;24338;48.280;10.970;2023-03-16T14:50:23;10.50;87.20
38568;DHT22;24338;48.280;10.970;2023-03-16T14:52:53;10.40;86.60
38568;DHT22;24338;48.280;10.970;2023-03-16T14:55:21;10.30;87.30
38568;DHT22;24338;48.280;10.970;2023-03-16T14:57:49;10.20;88.20
38568;DHT22;24338;48.280;10.970;2023-03-16T15:00:18;10.10;88.00
38568;DHT22;24338;48.280;10.970;2023-03-16T15:02:58;10.10;88.20
38568;DHT22;24338;48.280;10.970;2023-03-16T15:05:35;10.20;88.90
38568;DHT22;24338;48.280;10.970;2023-03-16T15:08:04;10.10;89.90
38568;DHT22;24338;48.280;10.970;2023-03-16T15:10:34;10.00;89.60
38568;DHT22;24338;48.280;10.970;2023-03-16T15:13:01;10.00;90.00
38568;DHT22;24338;48.280;10.970;2023-03-16T15:15:39;9.80;90.00
38568;DHT22;24338;48.280;10.970;2023-03-16T15:18:09;9.90;90.10
38568;DHT22;24338;48.280;10.970;2023-03-16T15:20:41;10.00;90.80
38568;DHT22;24338;48.280;10.970;2023-03-16T15:23:13;10.00;90.70
38568;DHT22;24338;48.280;10.970;2023-03-16T15:25:45;10.10;90.80
38568;DHT22;24338;48.280;10.970;2023-03-16T15:28:13;10.10;91.30
38568;DHT22;24338;48.280;10.970;2023-03-16T15:30:42;10.10;91.30
38568;DHT22;24338;48.280;10.970;2023-03-16T15:33:10;10.00;90.50
38568;DHT22;24338;48.280;10.970;2023-03-16T15:35:38;9.80;91.70
38568;DHT22;24338;48.280;10.970;2023-03-16T15:38:14;9.60;91.20
38568;DHT22;24338;48.280;10.970;2023-03-16T15:40:42;9.60;91.60
38568;DHT22;24338;48.280;10.970;2023-03-16T15:43:12;9.60;92.00
38568;DHT22;24338;48.280;10.970;2023-03-16T15:45:39;9.60;91.90
38568;DHT22;24338;48.280;10.970;2023-03-16T15:48:06;9.50;91.00
38568;DHT22;24338;48.280;10.970;2023-03-16T15:50:38;9.60;91.80
38568;DHT22;24338;48.280;10.970;2023-03-16T15:53:17;9.50;92.00
38568;DHT22;24338;48.280;10.970;2023-03-16T15:55:59;9.40;91.30
38568;DHT22;24338;48.280;10.970;2023-03-16T15:58:29;9.30;93.20
38568;DHT22;24338;48.280;10.970;2023-03-16T16:00:58;9.30;92.90
38568;DHT22;24338;48.280;10.970;2023-03-16T16:03:26;9.20;93.60
38568;DHT22;24338;48.280;10.970;2023-03-16T16:05:53;9.20;93.70
38568;DHT22;24338;48.280;10.970;2023-03-16T16:08:20;9.10;93.40
38568;DHT22;24338;48.280;10.970;2023-03-16T16:10:48;9.10;93.80
38568;DHT22;24338;48.280;10.970;2023-03-16T16:15:59;9.10;94.20
38568;DHT22;24338;48.280;10.970;2023-03-16T16:18:32;9.10;95.20
38568;DHT22;24338;48.280;10.970;2023-03-16T16:21:04;9.10;95.30
38568;DHT22;24338;48.280;10.970;2023-03-16T16:23:31;9.10;95.00
38568;DHT22;24338;48.280;10.970;2023-03-16T16:26:01;9.00;95.80
38568;DHT22;24338;48.280;10.970;2023-03-16T16:28:30;9.00;96.30
38568;DHT22;24338;48.280;10.970;2023-03-16T16:30:59;8.90;96.60
38568;DHT22;24338;48.280;10.970;2023-03-16T16:33:31;8.90;97.00
38568;DHT22;24338;48.280;10.970;2023-03-16T16:36:01;8.80;97.10
38568;DHT22;24338;48.280;10.970;2023-03-16T16:38:30;8.70;97.80
38568;DHT22;24338;48.280;10.970;2023-03-16T16:41:05;8.60;97.60
38568;DHT22;24338;48.280;10.970;2023-03-16T16:43:39;8.50;98.00
38568;DHT22;24338;48.280;10.970;2023-03-16T16:46:15;8.40;97.70
38568;DHT22;24338;48.280;10.970;2023-03-16T16:48:45;8.30;98.60
38568;DHT22;24338;48.280;10.970;2023-03-16T16:51:27;8.20;99.00
38568;DHT22;24338;48.280;10.970;2023-03-16T16:53:56;8.20;99.10
38568;DHT22;24338;48.280;10.970;2023-03-16T16:56:27;8.10;99.90
38568;DHT22;24338;48.280;10.970;2023-03-16T16:58:55;7.90;99.90
38568;DHT22;24338;48.280;10.970;2023-03-16T17:01:26;7.80;99.90